Crown Princess — ZCDM6 — position and weather

sailwx.info

Track history (hours):
 
Tides and Currents Weather Stations Pressure Air Temp Water Temp Dewpoint Dewpoint Depression Visibility Wind Speed Wind Dir Waves Ship Positions

Crown Princess

Last reported at 2016-Feb-13 20:24 UTC. Time now 2016-Feb-13 21:29 UTC.
Position N 33°45' W 118°17'.

Type: Ship. MMSI: 310500000.

Date/timePositionNaut miles runAvg speedWind from/ knotsBaromVisibWave heightAir tempDewpointWater temp
2016-Feb-13 20:24N 33°45' W 118°17'0 0.0
2016-Feb-13 19:32N 33°45' W 118°17'0 0.0
2016-Feb-13 18:32N 33°45' W 118°17'0 0.0
2016-Feb-13 17:31N 33°45' W 118°17'0 0.0
2016-Feb-13 16:16N 33°45' W 118°17'0 0.0
2016-Feb-13 15:33N 33°45' W 118°17'2 1.5
2016-Feb-13 14:33N 33°43' W 118°16'9 8.4
2016-Feb-13 13:33N 33°36' W 118°11'1111.1
2016-Feb-13 12:33N 33°26' W 118°06'1211.5
2016-Feb-13 11:33N 33°16' W 118°00'1111.4
2016-Feb-13 10:33N 33°05' W 117°55'1111.2
2016-Feb-13 09:34N 32°55' W 117°49'1111.2
2016-Feb-13 08:34N 32°45' W 117°44'1111.4
2016-Feb-13 07:34N 32°34' W 117°38'1212.1
2016-Feb-13 06:34N 32°23' W 117°33'1211.9
2016-Feb-13 05:34N 32°13' W 117°25'1312.1
2016-Feb-13 04:30N 32°05' W 117°14'1112.0
2016-Feb-13 03:33N 31°58' W 117°03'31 0.8
2016-Feb-11 11:27N 32°03' W 117°39'910.3
2016-Feb-11 10:33N 32°12' W 117°39'1010.2
2016-Feb-11 09:33N 32°23' W 117°39'1010.0
2016-Feb-11 08:33N 32°33' W 117°39'10 9.6
2016-Feb-11 07:33N 32°42' W 117°43'1010.1
2016-Feb-11 06:33N 32°50' W 117°49'1010.3
2016-Feb-11 05:33N 32°59' W 117°55'1010.3
2016-Feb-11 04:33N 33°08' W 118°02'1010.3
2016-Feb-11 03:33N 33°16' W 118°10'9 9.2
2016-Feb-11 02:33N 33°21' W 118°19'0 0.0
2016-Feb-10 22:28N 33°21' W 118°19'0 0.0
2016-Feb-10 21:21N 33°21' W 118°19'0 0.0
2016-Feb-10 20:33N 33°21' W 118°19'0 0.0
2016-Feb-10 19:33N 33°21' W 118°19'0 0.0
2016-Feb-10 18:32N 33°21' W 118°19'0 0.0
2016-Feb-10 17:32N 33°21' W 118°19'0 0.0
2016-Feb-10 16:31N 33°21' W 118°19'0 0.0
2016-Feb-10 15:31N 33°21' W 118°19'4 4.1
2016-Feb-10 14:33N 33°19' W 118°15'1010.4
2016-Feb-10 13:33N 33°12' W 118°06'1010.5
2016-Feb-10 12:33N 33°04' W 118°14'1010.5
2016-Feb-10 11:33N 32°55' W 118°06'1111.3
2016-Feb-10 10:33N 32°47' W 117°57'1110.9
2016-Feb-10 09:33N 32°40' W 117°47'7 7.4
2016-Feb-10 08:33N 32°44' W 117°39'1110.7
2016-Feb-10 07:33N 32°54' W 117°38'1010.4
2016-Feb-10 06:33N 33°05' W 117°38'1111.0
2016-Feb-10 05:33N 33°09' W 117°50'1110.9
2016-Feb-10 04:33N 33°14' W 118°02'1110.7
2016-Feb-10 03:33N 33°23' W 118°08'1110.9
2016-Feb-10 02:33N 33°33' W 118°13'10 9.6
2016-Feb-10 01:32N 33°43' W 118°16'11 0.9
2016-Feb-09 13:17N 33°34' W 118°09'811.5
2016-Feb-09 12:34N 33°26' W 118°06'1111.5
2016-Feb-09 11:34N 33°16' W 118°00'1212.3
2016-Feb-09 10:33N 33°04' W 117°54'1312.8
2016-Feb-09 09:33N 32°53' W 117°48'1211.9
2016-Feb-09 08:33N 32°42' W 117°42'9 9.3
2016-Feb-09 07:33N 32°33' W 117°38'1211.9
2016-Feb-09 06:34N 32°22' W 117°34'1111.0
2016-Feb-09 05:32N 32°13' W 117°26'116 4.9
2016-Feb-08 06:00N 30°30' W 116°24'34 3.1 350 / 31018.810.8 15.814.817.0
2016-Feb-07 19:00N 30°00' W 116°42'14710.9 999 / 21019.710.8 17.614.517.0
2016-Feb-07 05:33N 32°20' W 117°32'1510.3
2016-Feb-07 04:09N 32°31' W 117°21'710.5
2016-Feb-07 03:29N 32°36' W 117°15'7 7.9
2016-Feb-07 02:33N 32°43' W 117°11'1 0.5
2016-Feb-07 01:08N 32°43' W 117°10'0 0.0
2016-Feb-07 00:26N 32°43' W 117°10'0 0.0
2016-Feb-06 23:32N 32°43' W 117°10'0 0.0
2016-Feb-06 22:25N 32°43' W 117°10'0 0.0
2016-Feb-06 21:31N 32°43' W 117°10'0 0.0
2016-Feb-06 20:21N 32°43' W 117°10'0 0.0
2016-Feb-06 19:33N 32°43' W 117°10'0 0.0
2016-Feb-06 18:32N 32°43' W 117°10'0 0.0
2016-Feb-06 17:32N 32°43' W 117°10'0 0.0
2016-Feb-06 16:32N 32°43' W 117°10'0 0.0
2016-Feb-06 15:31N 32°43' W 117°10'3 2.8
2016-Feb-06 14:33N 32°42' W 117°14'10 9.6
2016-Feb-06 13:33N 32°33' W 117°17'1111.1
2016-Feb-06 12:33N 32°29' W 117°30'8 8.2
2016-Feb-06 11:33N 32°22' W 117°33'10 8.9
2016-Feb-06 10:24N 32°12' W 117°36'7 8.6
2016-Feb-06 09:33N 32°19' W 117°39'1010.3
2016-Feb-06 08:33N 32°29' W 117°39'1111.3
2016-Feb-06 07:33N 32°40' W 117°42'1212.2
2016-Feb-06 06:33N 32°51' W 117°49'1211.9
2016-Feb-06 05:33N 33°01' W 117°55'1212.0
2016-Feb-06 04:33N 33°12' W 118°02'1111.1
2016-Feb-06 03:33N 33°22' W 118°07'2210.9
2016-Feb-06 01:33N 33°44' W 118°12'4 4.3
2016-Feb-06 00:31N 33°45' W 118°17'0 0.0
2016-Feb-05 22:12N 33°45' W 118°17'0 0.0
2016-Feb-05 21:30N 33°45' W 118°17'0 0.0
2016-Feb-05 20:30N 33°45' W 118°17'0 0.0
2016-Feb-05 19:23N 33°45' W 118°17'0 0.0
2016-Feb-05 18:29N 33°45' W 118°17'0 0.0
2016-Feb-05 17:10N 33°45' W 118°17'15 3.6
2016-Feb-05 13:05N 33°32' W 118°08'610.7
2016-Feb-05 12:33N 33°27' W 118°06'1010.5
2016-Feb-05 11:33N 33°17' W 118°01'1010.4
2016-Feb-05 10:33N 33°08' W 117°56'1110.7
2016-Feb-05 09:34N 32°58' W 117°51'1110.7
2016-Feb-05 08:34N 32°48' W 117°46'1211.7
2016-Feb-05 07:34N 32°37' W 117°40'1212.4
2016-Feb-05 06:33N 32°26' W 117°34'1212.2
2016-Feb-05 05:33N 32°15' W 117°28'7 0.4
2016-Feb-04 12:33N 32°22' W 117°28'1717.2
2016-Feb-04 11:33N 32°36' W 117°41'1716.6
2016-Feb-04 10:33N 32°51' W 117°50'1716.6
2016-Feb-04 09:33N 33°05' W 117°59'1917.0
2016-Feb-04 08:28N 33°22' W 118°08'2713.9
2016-Feb-04 06:30N 33°41' W 118°31'1515.6
2016-Feb-04 05:32N 33°49' W 118°47'1716.9
2016-Feb-04 04:31N 33°57' W 119°05'  
Track history (hours):
 
Tides and Currents Weather Stations Pressure Air Temp Water Temp Dewpoint Dewpoint Depression Visibility Wind Speed Wind Dir Waves Ship Positions

Crown Princess

Last reported at 2016-Feb-13 20:24 UTC. Time now 2016-Feb-13 21:29 UTC.
Position N 33°45' W 118°17'.

Type: Ship. MMSI: 310500000.

Date/timePositionNaut miles runAvg speedWind from/ knotsBaromVisibWave heightAir tempDewpointWater temp
2016-Feb-13 20:24N 33°45' W 118°17'0 0.0
2016-Feb-13 19:32N 33°45' W 118°17'0 0.0
2016-Feb-13 18:32N 33°45' W 118°17'0 0.0
2016-Feb-13 17:31N 33°45' W 118°17'0 0.0
2016-Feb-13 16:16N 33°45' W 118°17'0 0.0
2016-Feb-13 15:33N 33°45' W 118°17'2 1.5
2016-Feb-13 14:33N 33°43' W 118°16'9 8.4
2016-Feb-13 13:33N 33°36' W 118°11'1111.1
2016-Feb-13 12:33N 33°26' W 118°06'1211.5
2016-Feb-13 11:33N 33°16' W 118°00'1111.4
2016-Feb-13 10:33N 33°05' W 117°55'1111.2
2016-Feb-13 09:34N 32°55' W 117°49'1111.2
2016-Feb-13 08:34N 32°45' W 117°44'1111.4
2016-Feb-13 07:34N 32°34' W 117°38'1212.1
2016-Feb-13 06:34N 32°23' W 117°33'1211.9
2016-Feb-13 05:34N 32°13' W 117°25'1312.1
2016-Feb-13 04:30N 32°05' W 117°14'1112.0
2016-Feb-13 03:33N 31°58' W 117°03'31 0.8
2016-Feb-11 11:27N 32°03' W 117°39'910.3
2016-Feb-11 10:33N 32°12' W 117°39'1010.2
2016-Feb-11 09:33N 32°23' W 117°39'1010.0
2016-Feb-11 08:33N 32°33' W 117°39'10 9.6
2016-Feb-11 07:33N 32°42' W 117°43'1010.1
2016-Feb-11 06:33N 32°50' W 117°49'1010.3
2016-Feb-11 05:33N 32°59' W 117°55'1010.3
2016-Feb-11 04:33N 33°08' W 118°02'1010.3
2016-Feb-11 03:33N 33°16' W 118°10'9 9.2
2016-Feb-11 02:33N 33°21' W 118°19'0 0.0
2016-Feb-10 22:28N 33°21' W 118°19'0 0.0
2016-Feb-10 21:21N 33°21' W 118°19'0 0.0
2016-Feb-10 20:33N 33°21' W 118°19'0 0.0
2016-Feb-10 19:33N 33°21' W 118°19'0 0.0
2016-Feb-10 18:32N 33°21' W 118°19'0 0.0
2016-Feb-10 17:32N 33°21' W 118°19'0 0.0
2016-Feb-10 16:31N 33°21' W 118°19'0 0.0
2016-Feb-10 15:31N 33°21' W 118°19'4 4.1
2016-Feb-10 14:33N 33°19' W 118°15'1010.4
2016-Feb-10 13:33N 33°12' W 118°06'1010.5
2016-Feb-10 12:33N 33°04' W 118°14'1010.5
2016-Feb-10 11:33N 32°55' W 118°06'1111.3
2016-Feb-10 10:33N 32°47' W 117°57'1110.9
2016-Feb-10 09:33N 32°40' W 117°47'7 7.4
2016-Feb-10 08:33N 32°44' W 117°39'1110.7
2016-Feb-10 07:33N 32°54' W 117°38'1010.4
2016-Feb-10 06:33N 33°05' W 117°38'1111.0
2016-Feb-10 05:33N 33°09' W 117°50'1110.9
2016-Feb-10 04:33N 33°14' W 118°02'1110.7
2016-Feb-10 03:33N 33°23' W 118°08'1110.9
2016-Feb-10 02:33N 33°33' W 118°13'10 9.6
2016-Feb-10 01:32N 33°43' W 118°16'11 0.9
2016-Feb-09 13:17N 33°34' W 118°09'811.5
2016-Feb-09 12:34N 33°26' W 118°06'1111.5
2016-Feb-09 11:34N 33°16' W 118°00'1212.3
2016-Feb-09 10:33N 33°04' W 117°54'1312.8
2016-Feb-09 09:33N 32°53' W 117°48'1211.9
2016-Feb-09 08:33N 32°42' W 117°42'9 9.3
2016-Feb-09 07:33N 32°33' W 117°38'1211.9
2016-Feb-09 06:34N 32°22' W 117°34'1111.0
2016-Feb-09 05:32N 32°13' W 117°26'116 4.9
2016-Feb-08 06:00N 30°30' W 116°24'34 3.1 350 / 31018.810.8 15.814.817.0
2016-Feb-07 19:00N 30°00' W 116°42'14710.9 999 / 21019.710.8 17.614.517.0
2016-Feb-07 05:33N 32°20' W 117°32'1510.3
2016-Feb-07 04:09N 32°31' W 117°21'710.5
2016-Feb-07 03:29N 32°36' W 117°15'7 7.9
2016-Feb-07 02:33N 32°43' W 117°11'1 0.5
2016-Feb-07 01:08N 32°43' W 117°10'0 0.0
2016-Feb-07 00:26N 32°43' W 117°10'0 0.0
2016-Feb-06 23:32N 32°43' W 117°10'0 0.0
2016-Feb-06 22:25N 32°43' W 117°10'0 0.0
2016-Feb-06 21:31N 32°43' W 117°10'0 0.0
2016-Feb-06 20:21N 32°43' W 117°10'0 0.0
2016-Feb-06 19:33N 32°43' W 117°10'0 0.0
2016-Feb-06 18:32N 32°43' W 117°10'0 0.0
2016-Feb-06 17:32N 32°43' W 117°10'0 0.0
2016-Feb-06 16:32N 32°43' W 117°10'0 0.0
2016-Feb-06 15:31N 32°43' W 117°10'3 2.8
2016-Feb-06 14:33N 32°42' W 117°14'10 9.6
2016-Feb-06 13:33N 32°33' W 117°17'1111.1
2016-Feb-06 12:33N 32°29' W 117°30'8 8.2
2016-Feb-06 11:33N 32°22' W 117°33'10 8.9
2016-Feb-06 10:24N 32°12' W 117°36'7 8.6
2016-Feb-06 09:33N 32°19' W 117°39'1010.3
2016-Feb-06 08:33N 32°29' W 117°39'1111.3
2016-Feb-06 07:33N 32°40' W 117°42'1212.2
2016-Feb-06 06:33N 32°51' W 117°49'1211.9
2016-Feb-06 05:33N 33°01' W 117°55'1212.0
2016-Feb-06 04:33N 33°12' W 118°02'1111.1
2016-Feb-06 03:33N 33°22' W 118°07'2210.9
2016-Feb-06 01:33N 33°44' W 118°12'4 4.3
2016-Feb-06 00:31N 33°45' W 118°17'0 0.0
2016-Feb-05 22:12N 33°45' W 118°17'0 0.0
2016-Feb-05 21:30N 33°45' W 118°17'0 0.0
2016-Feb-05 20:30N 33°45' W 118°17'0 0.0
2016-Feb-05 19:23N 33°45' W 118°17'0 0.0
2016-Feb-05 18:29N 33°45' W 118°17'0 0.0
2016-Feb-05 17:10N 33°45' W 118°17'15 3.6
2016-Feb-05 13:05N 33°32' W 118°08'610.7
2016-Feb-05 12:33N 33°27' W 118°06'1010.5
2016-Feb-05 11:33N 33°17' W 118°01'1010.4
2016-Feb-05 10:33N 33°08' W 117°56'1110.7
2016-Feb-05 09:34N 32°58' W 117°51'1110.7
2016-Feb-05 08:34N 32°48' W 117°46'1211.7
2016-Feb-05 07:34N 32°37' W 117°40'1212.4
2016-Feb-05 06:33N 32°26' W 117°34'1212.2
2016-Feb-05 05:33N 32°15' W 117°28'7 0.4
2016-Feb-04 12:33N 32°22' W 117°28'1717.2
2016-Feb-04 11:33N 32°36' W 117°41'1716.6
2016-Feb-04 10:33N 32°51' W 117°50'1716.6
2016-Feb-04 09:33N 33°05' W 117°59'1917.0
2016-Feb-04 08:28N 33°22' W 118°08'2713.9
2016-Feb-04 06:30N 33°41' W 118°31'1515.6
2016-Feb-04 05:32N 33°49' W 118°47'1716.9
2016-Feb-04 04:31N 33°57' W 119°05'  

Dump ship's entire track history